createdAt,value
2018-05-21T00:01:55.767Z,14.40
2018-05-21T00:04:23.280Z,14.40
2018-05-21T00:06:50.847Z,14.40
2018-05-21T00:09:18.395Z,14.30
2018-05-21T00:11:45.919Z,14.30
2018-05-21T00:14:13.428Z,14.30
2018-05-21T00:16:40.999Z,14.30
2018-05-21T00:19:08.495Z,14.30
2018-05-21T00:21:36.080Z,14.30
2018-05-21T00:24:04.356Z,14.30
2018-05-21T00:26:31.871Z,14.20
2018-05-21T00:28:59.382Z,14.30
2018-05-21T00:31:26.895Z,14.30
2018-05-21T00:33:54.415Z,14.30
2018-05-21T00:36:21.937Z,14.30
2018-05-21T00:38:49.451Z,14.20
2018-05-21T00:41:16.975Z,14.20
2018-05-21T00:43:44.488Z,14.20
2018-05-21T00:46:11.999Z,14.20
2018-05-21T00:48:39.527Z,14.20
2018-05-21T00:51:07.044Z,14.20
2018-05-21T00:53:34.559Z,14.20
2018-05-21T00:56:02.079Z,14.20
2018-05-21T00:58:29.590Z,14.20
2018-05-21T01:00:57.113Z,14.20
2018-05-21T01:03:24.623Z,14.10
2018-05-21T01:05:52.144Z,14.10
2018-05-21T01:08:19.659Z,14.10
2018-05-21T01:10:47.171Z,14.10
2018-05-21T01:13:14.707Z,14.10
2018-05-21T01:15:42.235Z,14.10
2018-05-21T01:18:09.763Z,14.10
2018-05-21T01:20:37.293Z,14.10
2018-05-21T01:23:04.812Z,14.10
2018-05-21T01:25:32.335Z,14.10
2018-05-21T01:28:01.603Z,14.10
2018-05-21T01:30:29.128Z,14.10
2018-05-21T01:32:56.686Z,14.10
2018-05-21T01:35:24.222Z,14.10
2018-05-21T01:37:51.751Z,14.10
2018-05-21T01:40:19.281Z,14.10
2018-05-21T01:42:49.791Z,14.10
2018-05-21T01:45:17.362Z,14.00
2018-05-21T01:47:44.884Z,14.00
2018-05-21T01:50:12.409Z,14.00
2018-05-21T01:52:39.931Z,14.00
2018-05-21T01:55:08.225Z,14.00
2018-05-21T01:57:35.823Z,13.90
2018-05-21T02:00:04.050Z,13.90
2018-05-21T02:02:31.571Z,13.90
2018-05-21T02:04:59.863Z,13.90
2018-05-21T02:07:28.147Z,13.90
2018-05-21T02:09:56.435Z,13.90
2018-05-21T02:12:24.712Z,13.90
2018-05-21T02:14:52.993Z,13.80
2018-05-21T02:17:21.275Z,13.80
2018-05-21T02:19:48.793Z,13.80
2018-05-21T02:22:16.364Z,13.80
2018-05-21T02:24:43.874Z,13.80
2018-05-21T02:27:11.397Z,13.80
2018-05-21T02:29:39.687Z,13.70
2018-05-21T02:32:07.223Z,13.70
2018-05-21T02:34:34.744Z,13.70
2018-05-21T02:37:02.257Z,13.70
2018-05-21T02:39:30.531Z,13.60
2018-05-21T02:41:58.079Z,13.60
2018-05-21T02:44:25.595Z,13.60
2018-05-21T02:46:53.132Z,13.60
2018-05-21T02:49:20.652Z,13.60
2018-05-21T02:51:48.177Z,13.60
2018-05-21T02:54:15.690Z,13.50
2018-05-21T02:56:43.207Z,13.50
2018-05-21T02:59:10.727Z,13.50
2018-05-21T03:01:38.261Z,13.50
2018-05-21T03:04:05.777Z,13.50
2018-05-21T03:06:33.291Z,13.50
2018-05-21T03:09:00.807Z,13.50
2018-05-21T03:11:28.319Z,13.50
2018-05-21T03:13:55.872Z,13.40
2018-05-21T03:16:23.379Z,13.40
2018-05-21T03:18:50.895Z,13.40
2018-05-21T03:21:22.449Z,13.40
2018-05-21T03:23:50.799Z,13.40
2018-05-21T03:26:18.327Z,13.40
2018-05-21T03:28:45.839Z,13.40
2018-05-21T03:31:13.380Z,13.40
2018-05-21T03:33:40.917Z,13.40
2018-05-21T03:36:08.448Z,13.40
2018-05-21T03:38:35.963Z,13.40
2018-05-21T03:41:03.488Z,13.40
2018-05-21T03:43:31.011Z,13.40
2018-05-21T03:45:58.619Z,13.40
2018-05-21T03:48:26.144Z,13.40
2018-05-21T03:50:53.671Z,13.40
2018-05-21T03:53:21.203Z,13.40
2018-05-21T03:55:48.733Z,13.40
2018-05-21T03:58:28.024Z,13.40
2018-05-21T04:01:07.227Z,13.40
2018-05-21T04:03:41.515Z,13.40
2018-05-21T04:06:09.032Z,13.40
2018-05-21T04:08:36.555Z,13.40
2018-05-21T04:11:04.072Z,13.50
2018-05-21T04:13:31.582Z,13.50
2018-05-21T04:15:59.868Z,13.50
2018-05-21T04:18:27.436Z,13.50
2018-05-21T04:20:54.964Z,13.60
2018-05-21T04:23:22.479Z,13.60
2018-05-21T04:25:50.012Z,13.60
2018-05-21T04:28:17.531Z,13.60
2018-05-21T04:30:45.064Z,13.70
2018-05-21T04:33:12.587Z,13.70
2018-05-21T04:35:40.493Z,13.80
2018-05-21T04:38:08.036Z,13.80
2018-05-21T04:40:35.555Z,13.80
2018-05-21T04:43:03.072Z,13.90
2018-05-21T04:45:30.591Z,13.90
2018-05-21T04:47:58.106Z,13.90
2018-05-21T04:50:25.639Z,14.00
2018-05-21T04:52:53.362Z,14.00
2018-05-21T04:55:20.883Z,14.10
2018-05-21T04:57:49.177Z,14.10
2018-05-21T05:00:16.691Z,14.10
2018-05-21T05:02:44.223Z,14.20
2018-05-21T05:05:11.742Z,14.20
2018-05-21T05:07:39.287Z,14.20
2018-05-21T05:10:06.871Z,14.30
2018-05-21T05:12:34.420Z,14.30
2018-05-21T05:15:02.381Z,14.40
2018-05-21T05:17:29.967Z,14.50
2018-05-21T05:19:57.515Z,14.60
2018-05-21T05:22:25.821Z,14.70
2018-05-21T05:24:53.339Z,14.70
2018-05-21T05:27:21.643Z,14.80
2018-05-21T05:29:49.195Z,14.80
2018-05-21T05:32:16.751Z,14.90
2018-05-21T05:34:45.066Z,15.10
2018-05-21T05:37:13.115Z,15.10
2018-05-21T05:39:40.639Z,15.20
2018-05-21T05:42:08.212Z,15.30
2018-05-21T05:44:35.691Z,15.40
2018-05-21T05:47:03.203Z,15.50
2018-05-21T05:49:30.724Z,15.70
2018-05-21T05:51:58.243Z,15.80
2018-05-21T05:54:25.774Z,15.90
2018-05-21T05:56:53.292Z,16.10
2018-05-21T05:59:21.239Z,16.30
2018-05-21T06:01:48.787Z,17.00
2018-05-21T06:04:16.300Z,17.50
2018-05-21T06:06:43.823Z,18.00
2018-05-21T06:09:11.331Z,19.70
2018-05-21T06:11:38.839Z,22.70
2018-05-21T06:14:06.360Z,24.90
2018-05-21T06:16:34.161Z,26.70
2018-05-21T06:19:02.451Z,28.60
2018-05-21T06:21:30.037Z,28.50
2018-05-21T06:23:57.572Z,28.80
2018-05-21T06:26:25.848Z,31.40
2018-05-21T06:28:53.359Z,31.30
2018-05-21T06:31:20.888Z,31.60
2018-05-21T06:33:48.478Z,32.40
2018-05-21T06:36:16.719Z,32.30
2018-05-21T06:38:44.231Z,32.20
2018-05-21T06:41:11.777Z,31.80
2018-05-21T06:43:39.304Z,31.80
2018-05-21T06:46:06.839Z,32.40
2018-05-21T06:48:34.388Z,34.00
2018-05-21T06:51:01.911Z,34.30
2018-05-21T06:53:29.479Z,34.40
2018-05-21T06:55:57.159Z,34.10
2018-05-21T06:58:24.740Z,34.40
2018-05-21T07:00:52.312Z,34.80
2018-05-21T07:03:21.156Z,35.10
2018-05-21T07:05:48.676Z,34.70
2018-05-21T07:08:16.240Z,31.40
2018-05-21T07:10:43.768Z,29.50
2018-05-21T07:13:11.311Z,29.10
2018-05-21T07:15:38.833Z,28.20
2018-05-21T07:18:06.358Z,28.20
2018-05-21T07:20:33.950Z,27.20
2018-05-21T07:23:02.409Z,26.30
2018-05-21T07:25:29.987Z,25.90
2018-05-21T07:27:57.548Z,25.80
2018-05-21T07:30:25.075Z,26.50
2018-05-21T07:32:53.448Z,25.70
2018-05-21T07:35:20.973Z,25.70
2018-05-21T07:37:48.498Z,25.80
2018-05-21T07:40:16.018Z,25.70
2018-05-21T07:42:43.562Z,26.10
2018-05-21T07:45:11.093Z,26.60
2018-05-21T07:47:38.728Z,27.50
2018-05-21T07:50:07.016Z,31.00
2018-05-21T07:52:34.569Z,31.00
2018-05-21T07:55:02.109Z,32.00
2018-05-21T07:57:29.828Z,32.90
2018-05-21T07:59:57.362Z,34.30
2018-05-21T08:02:24.912Z,35.90
2018-05-21T08:04:52.428Z,34.40
2018-05-21T08:07:19.967Z,35.10
2018-05-21T08:09:47.888Z,35.70
2018-05-21T08:12:17.202Z,35.80
2018-05-21T08:14:44.979Z,36.80
2018-05-21T08:17:13.012Z,37.70
2018-05-21T08:19:41.613Z,37.90
2018-05-21T08:22:09.200Z,38.00
2018-05-21T08:24:36.743Z,38.70
2018-05-21T08:27:05.884Z,38.50
2018-05-21T08:29:33.698Z,38.50
2018-05-21T08:32:01.232Z,39.30
2018-05-21T08:34:30.492Z,37.90
2018-05-21T08:36:59.228Z,37.90
2018-05-21T08:39:27.691Z,37.60
2018-05-21T08:41:55.211Z,38.30
2018-05-21T08:44:22.743Z,37.60
2018-05-21T08:46:50.297Z,37.70
2018-05-21T08:49:17.840Z,38.20
2018-05-21T08:51:45.363Z,37.50
2018-05-21T08:54:12.879Z,37.50
2018-05-21T08:56:40.422Z,36.30
2018-05-21T08:59:07.949Z,35.00
2018-05-21T09:01:35.477Z,34.20
2018-05-21T09:04:02.995Z,32.80
2018-05-21T09:06:30.527Z,31.70
2018-05-21T09:08:58.048Z,31.10
2018-05-21T09:11:25.576Z,30.70
2018-05-21T09:13:53.104Z,29.80
2018-05-21T09:16:20.714Z,29.30
2018-05-21T09:18:48.940Z,28.20
2018-05-21T09:21:16.467Z,28.10
2018-05-21T09:23:44.760Z,28.40
2018-05-21T09:26:12.354Z,28.40
2018-05-21T09:28:39.825Z,27.90
2018-05-21T09:31:07.348Z,27.70
2018-05-21T09:33:34.862Z,27.60
2018-05-21T09:36:04.181Z,27.70
2018-05-21T09:38:31.708Z,27.40
2018-05-21T09:40:59.997Z,27.20
2018-05-21T09:43:27.515Z,27.10
2018-05-21T09:45:55.043Z,27.40
2018-05-21T09:48:22.563Z,27.50
2018-05-21T09:50:50.076Z,27.10
2018-05-21T09:53:18.359Z,26.80
2018-05-21T09:55:45.883Z,26.80
2018-05-21T09:58:13.404Z,26.80
2018-05-21T10:00:40.923Z,26.80
2018-05-21T10:03:09.233Z,26.60
2018-05-21T10:05:36.763Z,26.60
2018-05-21T10:08:04.280Z,26.40
2018-05-21T10:10:31.827Z,26.30
2018-05-21T10:12:59.343Z,26.20
2018-05-21T10:15:27.647Z,26.30
2018-05-21T10:17:55.160Z,26.30
2018-05-21T10:20:22.704Z,26.10
2018-05-21T10:22:50.224Z,26.00
2018-05-21T10:25:17.759Z,26.10
2018-05-21T10:27:45.280Z,26.10
2018-05-21T10:30:12.813Z,25.90
2018-05-21T10:32:40.334Z,25.90
2018-05-21T10:35:07.854Z,26.00
2018-05-21T10:37:35.373Z,26.10
2018-05-21T10:40:02.891Z,25.80
2018-05-21T10:42:30.418Z,25.90
2018-05-21T10:44:57.943Z,25.50
2018-05-21T10:47:25.472Z,25.70
2018-05-21T10:49:52.995Z,25.80
2018-05-21T10:52:20.551Z,25.80
2018-05-21T10:54:48.072Z,25.90
2018-05-21T10:57:15.621Z,25.90
2018-05-21T10:59:43.135Z,25.80
2018-05-21T11:02:11.071Z,25.60
2018-05-21T11:04:39.421Z,25.30
2018-05-21T11:07:06.907Z,25.30
2018-05-21T11:09:35.184Z,25.20
2018-05-21T11:12:02.794Z,25.20
2018-05-21T11:14:30.239Z,25.30
2018-05-21T11:16:57.763Z,25.40
2018-05-21T11:19:26.039Z,25.40
2018-05-21T11:21:53.567Z,25.40
2018-05-21T11:24:21.100Z,25.50
2018-05-21T11:26:48.623Z,25.50
2018-05-21T11:29:16.920Z,25.30
2018-05-21T11:31:44.435Z,25.30
2018-05-21T11:34:11.967Z,25.30
2018-05-21T11:36:39.492Z,25.30
2018-05-21T11:39:07.015Z,25.20
2018-05-21T11:41:34.545Z,25.20
2018-05-21T11:44:02.061Z,25.30
2018-05-21T11:46:29.625Z,25.40
2018-05-21T11:48:57.124Z,25.50
2018-05-21T11:51:24.643Z,25.20
2018-05-21T11:53:52.174Z,25.30
2018-05-21T11:56:19.724Z,24.90
2018-05-21T11:58:47.244Z,25.00
2018-05-21T12:01:14.782Z,25.10
2018-05-21T12:03:42.304Z,25.20
2018-05-21T12:06:09.848Z,25.20
2018-05-21T12:08:37.392Z,25.20
2018-05-21T12:11:04.904Z,25.20
2018-05-21T12:13:32.493Z,25.10
2018-05-21T12:15:59.998Z,25.00
2018-05-21T12:18:28.279Z,24.90
2018-05-21T12:20:55.835Z,24.90
2018-05-21T12:23:23.360Z,25.00
2018-05-21T12:25:50.879Z,25.00
2018-05-21T12:28:18.401Z,25.00
2018-05-21T12:30:45.912Z,25.10
2018-05-21T12:33:13.428Z,25.00
2018-05-21T12:35:40.959Z,25.10
2018-05-21T12:38:08.499Z,24.80
2018-05-21T12:40:36.771Z,24.80
2018-05-21T12:43:04.291Z,24.70
2018-05-21T12:45:31.815Z,24.80
2018-05-21T12:47:59.340Z,24.70
2018-05-21T12:50:26.861Z,24.70
2018-05-21T12:52:54.378Z,24.70
2018-05-21T12:55:21.908Z,24.70
2018-05-21T12:57:49.435Z,24.70
2018-05-21T13:00:16.954Z,24.60
2018-05-21T13:02:44.476Z,24.60
2018-05-21T13:05:11.996Z,24.70
2018-05-21T13:07:39.516Z,24.70
2018-05-21T13:10:07.039Z,24.80
2018-05-21T13:12:34.559Z,24.80
2018-05-21T13:15:02.085Z,24.80
2018-05-21T13:17:29.603Z,24.80
2018-05-21T13:19:57.123Z,24.80
2018-05-21T13:22:24.648Z,24.70
2018-05-21T13:24:52.979Z,24.50
2018-05-21T13:27:20.491Z,24.50
2018-05-21T13:29:48.011Z,24.60
2018-05-21T13:32:15.528Z,24.60
2018-05-21T13:34:43.061Z,24.70
2018-05-21T13:37:10.605Z,24.60
2018-05-21T13:39:38.138Z,24.50
2018-05-21T13:42:05.666Z,24.40
2018-05-21T13:44:33.183Z,24.40
2018-05-21T13:47:00.701Z,24.50
2018-05-21T13:49:28.211Z,24.50
2018-05-21T13:51:55.723Z,24.50
2018-05-21T13:54:23.235Z,24.50
2018-05-21T13:56:50.757Z,24.50
2018-05-21T13:59:18.272Z,24.40
2018-05-21T14:01:45.792Z,24.50
2018-05-21T14:04:13.302Z,24.50
2018-05-21T14:06:40.816Z,24.40
2018-05-21T14:09:08.335Z,24.40
2018-05-21T14:11:35.857Z,24.40
2018-05-21T14:14:03.375Z,24.50
2018-05-21T14:16:30.916Z,24.50
2018-05-21T14:18:59.207Z,24.50
2018-05-21T14:21:26.752Z,24.50
2018-05-21T14:23:54.275Z,24.50
2018-05-21T14:26:21.795Z,24.40
2018-05-21T14:28:49.321Z,24.40
2018-05-21T14:31:16.840Z,24.40
2018-05-21T14:33:44.356Z,24.30
2018-05-21T14:36:11.899Z,24.30
2018-05-21T14:38:39.418Z,24.30
2018-05-21T14:41:06.947Z,24.30
2018-05-21T14:43:34.466Z,24.30
2018-05-21T14:46:01.984Z,24.30
2018-05-21T14:48:29.517Z,24.30
2018-05-21T14:50:57.815Z,24.40
2018-05-21T14:53:25.337Z,24.30
2018-05-21T14:55:52.852Z,24.40
2018-05-21T14:58:20.368Z,24.30
2018-05-21T15:00:47.887Z,24.30
2018-05-21T15:03:15.399Z,24.20
2018-05-21T15:05:42.916Z,24.20
2018-05-21T15:08:10.431Z,24.20
2018-05-21T15:10:37.952Z,24.20
2018-05-21T15:13:05.484Z,24.20
2018-05-21T15:15:33.007Z,24.20
2018-05-21T15:18:00.552Z,24.20
2018-05-21T15:20:28.075Z,24.20
2018-05-21T15:22:55.589Z,24.20
2018-05-21T15:25:23.113Z,24.30
2018-05-21T15:27:50.632Z,24.30
2018-05-21T15:30:18.145Z,24.20
2018-05-21T15:32:45.694Z,24.20
2018-05-21T15:35:13.211Z,24.20
2018-05-21T15:37:40.737Z,24.10
2018-05-21T15:40:08.267Z,24.10
2018-05-21T15:42:35.788Z,24.10
2018-05-21T15:45:03.307Z,24.20
2018-05-21T15:47:30.827Z,24.20
2018-05-21T15:49:58.360Z,24.20
2018-05-21T15:52:25.886Z,24.10
2018-05-21T15:54:54.188Z,24.20
2018-05-21T15:57:21.719Z,24.10
2018-05-21T15:59:49.252Z,24.10
2018-05-21T16:02:16.772Z,24.00
2018-05-21T16:04:44.285Z,24.00
2018-05-21T16:07:11.813Z,23.90
2018-05-21T16:09:39.346Z,23.90
2018-05-21T16:12:06.864Z,23.90
2018-05-21T16:14:34.389Z,23.90
2018-05-21T16:17:01.913Z,23.90
2018-05-21T16:19:29.447Z,23.80
2018-05-21T16:21:56.963Z,23.80
2018-05-21T16:24:25.249Z,23.80
2018-05-21T16:26:52.762Z,23.80
2018-05-21T16:29:20.308Z,23.80
2018-05-21T16:31:47.828Z,23.80
2018-05-21T16:34:15.374Z,23.70
2018-05-21T16:36:42.903Z,23.70
2018-05-21T16:39:10.436Z,23.70
2018-05-21T16:41:37.968Z,23.70
2018-05-21T16:44:05.514Z,23.60
2018-05-21T16:46:33.023Z,23.60
2018-05-21T16:49:00.602Z,23.60
2018-05-21T16:51:28.118Z,23.50
2018-05-21T16:53:56.516Z,23.50
2018-05-21T16:56:24.303Z,23.50
2018-05-21T16:58:51.824Z,23.50
2018-05-21T17:01:19.340Z,23.40
2018-05-21T17:03:46.859Z,23.40
2018-05-21T17:06:14.394Z,23.40
2018-05-21T17:08:41.911Z,23.40
2018-05-21T17:11:09.435Z,23.30
2018-05-21T17:13:36.960Z,23.20
2018-05-21T17:16:04.486Z,23.30
2018-05-21T17:18:32.023Z,23.20
2018-05-21T17:20:59.546Z,23.30
2018-05-21T17:23:27.079Z,23.20
2018-05-21T17:25:54.600Z,23.10
2018-05-21T17:28:22.123Z,23.10
2018-05-21T17:30:49.643Z,23.00
2018-05-21T17:33:17.163Z,23.00
2018-05-21T17:35:44.743Z,23.10
2018-05-21T17:38:12.233Z,23.00
2018-05-21T17:40:39.756Z,23.00
2018-05-21T17:43:07.276Z,23.00
2018-05-21T17:45:35.723Z,22.90
2018-05-21T17:48:04.006Z,22.80
2018-05-21T17:50:31.571Z,22.80
2018-05-21T17:52:59.869Z,22.70
2018-05-21T17:55:27.396Z,22.70
2018-05-21T17:57:54.946Z,22.60
2018-05-21T18:00:22.623Z,22.60
2018-05-21T18:02:50.161Z,22.60
2018-05-21T18:05:17.695Z,22.50
2018-05-21T18:07:46.176Z,22.40
2018-05-21T18:10:13.725Z,22.40
2018-05-21T18:12:41.244Z,22.30
2018-05-21T18:15:09.544Z,22.30
2018-05-21T18:17:37.084Z,22.20
2018-05-21T18:20:04.622Z,22.20
2018-05-21T18:22:32.153Z,22.20
2018-05-21T18:24:59.690Z,22.10
2018-05-21T18:27:27.224Z,22.10
2018-05-21T18:29:55.528Z,22.00
2018-05-21T18:32:23.039Z,21.90
2018-05-21T18:34:50.581Z,21.90
2018-05-21T18:37:18.103Z,21.80
2018-05-21T18:39:45.616Z,21.70
2018-05-21T18:42:13.213Z,21.70
2018-05-21T18:44:40.717Z,21.60
2018-05-21T18:47:08.237Z,21.60
2018-05-21T18:49:35.754Z,21.60
2018-05-21T18:52:03.275Z,21.50
2018-05-21T18:54:30.817Z,21.50
2018-05-21T18:56:58.352Z,21.40
2018-05-21T18:59:25.872Z,21.40
2018-05-21T19:01:53.409Z,21.30
2018-05-21T19:04:20.920Z,21.30
2018-05-21T19:06:48.443Z,21.20
2018-05-21T19:09:15.954Z,21.10
2018-05-21T19:11:44.239Z,21.00
2018-05-21T19:14:11.779Z,21.00
2018-05-21T19:16:39.300Z,20.90
2018-05-21T19:19:06.818Z,20.80
2018-05-21T19:21:34.356Z,20.80
2018-05-21T19:24:01.969Z,20.70
2018-05-21T19:26:29.433Z,20.70
2018-05-21T19:28:56.957Z,20.60
2018-05-21T19:31:24.483Z,20.60
2018-05-21T19:33:52.013Z,20.60
2018-05-21T19:36:19.548Z,20.50
2018-05-21T19:38:47.304Z,20.40
2018-05-21T19:41:14.836Z,20.40
2018-05-21T19:43:42.356Z,20.30
2018-05-21T19:46:09.874Z,20.30
2018-05-21T19:48:37.400Z,20.30
2018-05-21T19:51:04.914Z,20.20
2018-05-21T19:53:32.435Z,20.20
2018-05-21T19:55:59.949Z,20.10
2018-05-21T19:58:27.460Z,20.10
2018-05-21T20:00:55.000Z,20.00
2018-05-21T20:03:22.534Z,20.00
2018-05-21T20:05:50.092Z,20.00
2018-05-21T20:08:17.607Z,20.00
2018-05-21T20:10:45.132Z,19.90
2018-05-21T20:13:12.661Z,19.90
2018-05-21T20:15:40.184Z,19.80
2018-05-21T20:18:07.712Z,19.80
2018-05-21T20:20:41.924Z,19.80
2018-05-21T20:23:09.547Z,19.70
2018-05-21T20:25:37.080Z,19.70
2018-05-21T20:28:04.617Z,19.70
2018-05-21T20:30:32.131Z,19.70
2018-05-21T20:32:59.654Z,19.60
2018-05-21T20:35:27.171Z,19.60
2018-05-21T20:37:54.706Z,19.60
2018-05-21T20:40:22.239Z,19.50
2018-05-21T20:42:49.775Z,19.50
2018-05-21T20:45:17.383Z,19.50
2018-05-21T20:47:45.108Z,19.40
2018-05-21T20:50:12.625Z,19.40
2018-05-21T20:52:40.246Z,19.40
2018-05-21T20:55:07.771Z,19.40
2018-05-21T20:57:35.284Z,19.40
2018-05-21T21:00:03.568Z,19.40
2018-05-21T21:02:31.117Z,19.30
2018-05-21T21:04:58.639Z,19.30
2018-05-21T21:07:26.163Z,19.30
2018-05-21T21:09:53.684Z,19.20
2018-05-21T21:12:21.207Z,19.20
2018-05-21T21:14:48.715Z,19.20
2018-05-21T21:17:16.232Z,19.20
2018-05-21T21:19:43.756Z,19.10
2018-05-21T21:22:11.300Z,19.10
2018-05-21T21:24:38.816Z,19.10
2018-05-21T21:27:06.361Z,19.10
2018-05-21T21:29:33.872Z,19.10
2018-05-21T21:32:01.416Z,19.00
2018-05-21T21:34:28.949Z,19.00
2018-05-21T21:36:56.474Z,19.00
2018-05-21T21:39:24.000Z,18.90
2018-05-21T21:41:51.536Z,18.90
2018-05-21T21:44:19.047Z,18.90
2018-05-21T21:46:47.350Z,18.90
2018-05-21T21:49:14.879Z,18.80
2018-05-21T21:51:42.408Z,18.80
2018-05-21T21:54:09.932Z,18.80
2018-05-21T21:56:37.462Z,18.80
2018-05-21T21:59:04.992Z,18.70
2018-05-21T22:01:32.507Z,18.70
2018-05-21T22:04:00.025Z,18.70
2018-05-21T22:06:27.560Z,18.70
2018-05-21T22:08:55.099Z,18.70
2018-05-21T22:11:22.615Z,18.60
2018-05-21T22:13:50.911Z,18.60
2018-05-21T22:16:18.437Z,18.50
2018-05-21T22:18:45.955Z,18.60
2018-05-21T22:21:13.477Z,18.60
2018-05-21T22:23:41.763Z,18.50
2018-05-21T22:26:09.291Z,18.50
2018-05-21T22:28:36.817Z,18.50
2018-05-21T22:31:04.339Z,18.50
2018-05-21T22:33:32.641Z,18.40
2018-05-21T22:36:00.164Z,18.40
2018-05-21T22:38:27.689Z,18.40
2018-05-21T22:40:55.207Z,18.40
2018-05-21T22:43:22.727Z,18.40
2018-05-21T22:45:50.252Z,18.40
2018-05-21T22:48:17.764Z,18.40
2018-05-21T22:50:45.283Z,18.30
2018-05-21T22:53:12.796Z,18.30
2018-05-21T22:55:40.323Z,18.30
2018-05-21T22:58:07.844Z,18.30
2018-05-21T23:00:35.359Z,18.30
2018-05-21T23:03:03.639Z,18.20
2018-05-21T23:05:31.163Z,18.20
2018-05-21T23:07:58.706Z,18.20
2018-05-21T23:10:26.236Z,18.10
2018-05-21T23:12:53.765Z,18.10
2018-05-21T23:15:21.281Z,18.10
2018-05-21T23:17:48.806Z,18.00
2018-05-21T23:20:16.328Z,18.00
2018-05-21T23:22:44.656Z,18.00
2018-05-21T23:25:12.182Z,18.00
2018-05-21T23:27:39.699Z,17.90
2018-05-21T23:30:07.222Z,17.90
2018-05-21T23:32:34.742Z,17.90
2018-05-21T23:35:02.270Z,17.90
2018-05-21T23:37:29.788Z,17.90
2018-05-21T23:39:57.307Z,17.90
2018-05-21T23:42:24.826Z,17.80
2018-05-21T23:44:52.344Z,17.80
2018-05-21T23:47:19.863Z,17.80
2018-05-21T23:49:47.388Z,17.80
2018-05-21T23:52:14.919Z,17.80
2018-05-21T23:54:42.445Z,17.70
2018-05-21T23:57:09.966Z,17.80
2018-05-21T23:59:38.330Z,17.70
